Información del aeropuerto ENHK

Información de pista
Pista 11 Longitud 3179 ft Anchura 98 ft Elevación 19 ft Umbral 199 ft Rumbo 119
Pista 29 Longitud 3179 ft Anchura 98 ft Elevación 10 ft Umbral 362 ft Rumbo 299
Frecuencias del aeropuerto
Tipo AFIS Nombre INFO Frecuencia 119.9 MHZ
Radioayudas del aeropuerto
Tipo NDB Nombre Hasvik Frecuencia 386 KHZ
METAR y NOTAM del aeropuerto
ADDS - METARS form results

(2334 UTC 06 February 2023)
Data provider http://aviationweather.gov/metar/data/
 
METAR text: ENHK 062320Z AUTO 25013KT 210V280 9999 DZRA 08/04 Q1003
Conditions at: ENHK (HASVIK , NO) observed 2320 UTC 06 February 2023
Temperature: 8.0°C (46°F)
Dewpoint: 4.0°C (39°F) [RH = 76%]
Pressure (altimeter): 29.62 inches Hg (1003.0 mb)
Winds: from the WSW (250 degrees) at 15 MPH (13 knots; 6.7 m/s)
Visibility: 6 or more miles (10+ km)
Ceiling: unknown
Clouds: missing
Weather: DZ RA  (moderate drizzle, moderate rain)

METAR text: ENHK 062250Z AUTO 25015KT 9999 -RA 07/04 Q1003
Conditions at: ENHK (HASVIK , NO) observed 2250 UTC 06 February 2023
Temperature: 7.0°C (45°F)
Dewpoint: 4.0°C (39°F) [RH = 81%]
Pressure (altimeter): 29.62 inches Hg (1003.0 mb)
Winds: from the WSW (250 degrees) at 17 MPH (15 knots; 7.7 m/s)
Visibility: 6 or more miles (10+ km)
Ceiling: unknown
Clouds: missing
Weather: -RA  (light rain)